Albany Center, Vermont
Current Conditions -  °F | °C
As of 9:15 AM on Saturday 25 Oct 2014 (Local Time) from KEFK Reporting Station
Clear Clear  
Wind Chill: 38°   Ceiling: Unl
Heat Index: 38°   Visibility: 10mi
Dew Point: 37°   Wind: 0mph
Humidity: 96%   Direction: NA
Pressure: 29.73"   Gusts: NA
Location:  44.8143°N, 72.284°W
Report Text: KEFK 251315Z AUTO 00000KT 10SM CLR 03/03 A2973 RMK AO2 T00340028
Loading
Personal Weather Stations






























Interactive Weather Map
Tropical Storm Tracking
New forecast layout! Learn more

10-Day Weather Forecast

Advertisements
Track Severe Weather on mobile